createdAt,value
2023-02-28T00:03:37.230Z,5.87
2023-02-28T00:08:39.063Z,5.30
2023-02-28T00:13:43.404Z,4.47
2023-02-28T00:18:45.137Z,4.33
2023-02-28T00:23:47.112Z,4.07
2023-02-28T00:28:50.139Z,4.43
2023-02-28T00:33:52.746Z,4.97
2023-02-28T00:38:56.371Z,6.13
2023-02-28T00:43:59.400Z,6.60
2023-02-28T00:49:01.113Z,7.60
2023-02-28T00:54:02.810Z,7.97
2023-02-28T00:59:05.977Z,7.53
2023-02-28T01:04:07.779Z,8.00
2023-02-28T01:09:11.394Z,6.90
2023-02-28T01:14:15.025Z,7.87
2023-02-28T01:19:16.827Z,8.43
2023-02-28T01:24:18.577Z,7.87
2023-02-28T01:29:21.802Z,7.83
2023-02-28T01:34:23.547Z,6.03
2023-02-28T01:39:26.792Z,9.10
2023-02-28T01:45:02.763Z,5.50
2023-02-28T01:50:06.809Z,5.40
2023-02-28T01:55:09.126Z,5.30
2023-02-28T02:00:15.473Z,5.60
2023-02-28T02:05:23.374Z,6.03
2023-02-28T02:10:28.147Z,6.27
2023-02-28T02:15:32.457Z,6.37
2023-02-28T02:20:57.910Z,6.80
2023-02-28T02:26:06.787Z,8.40
2023-02-28T02:31:35.556Z,6.70
2023-02-28T02:36:39.520Z,5.73
2023-02-28T02:41:44.694Z,5.90
2023-02-28T02:46:46.512Z,6.13
2023-02-28T02:51:49.685Z,5.47
2023-02-28T02:56:51.400Z,5.90
2023-02-28T03:01:54.713Z,6.10
2023-02-28T03:06:57.834Z,6.65
2023-02-28T03:11:59.787Z,7.00
2023-02-28T03:17:21.571Z,6.87
2023-02-28T03:22:53.368Z,6.87
2023-02-28T03:28:00.866Z,7.00
2023-02-28T03:33:05.911Z,7.30
2023-02-28T03:38:10.526Z,7.87
2023-02-28T03:43:14.561Z,5.60
2023-02-28T03:48:18.101Z,5.40
2023-02-28T03:53:22.994Z,6.77
2023-02-28T03:58:27.837Z,6.47
2023-02-28T04:03:29.857Z,5.40
2023-02-28T04:08:32.981Z,5.30
2023-02-28T04:13:34.961Z,4.40
2023-02-28T04:18:36.643Z,4.43
2023-02-28T04:23:39.772Z,4.50
2023-02-28T04:28:41.448Z,4.80
2023-02-28T04:33:43.421Z,4.37
2023-02-28T04:38:46.612Z,4.13
2023-02-28T04:43:48.420Z,4.70
2023-02-28T04:48:50.266Z,4.77
2023-02-28T04:53:53.328Z,4.33
2023-02-28T04:58:55.573Z,4.77
2023-02-28T05:03:58.287Z,5.13
2023-02-28T05:09:01.940Z,5.07
2023-02-28T05:14:05.406Z,4.13
2023-02-28T05:19:07.140Z,5.23
2023-02-28T05:24:12.218Z,4.70
2023-02-28T05:29:13.985Z,9.10
2023-02-28T05:34:16.615Z,7.03
2023-02-28T05:39:19.718Z,7.40
2023-02-28T05:44:21.478Z,7.13
2023-02-28T05:49:23.216Z,7.13
2023-02-28T05:54:26.479Z,6.67
2023-02-28T05:59:28.271Z,6.80
2023-02-28T06:04:32.100Z,6.57
2023-02-28T06:09:35.350Z,6.97
2023-02-28T06:14:37.218Z,6.30
2023-02-28T06:19:39.721Z,6.60
2023-02-28T06:24:42.770Z,6.20
2023-02-28T06:29:44.413Z,6.20
2023-02-28T06:34:46.161Z,10.30
2023-02-28T06:39:49.192Z,10.20
2023-02-28T06:44:50.860Z,6.23
2023-02-28T06:49:52.653Z,7.40
2023-02-28T06:55:00.812Z,7.10
2023-02-28T07:00:04.780Z,5.90
2023-02-28T07:05:06.862Z,6.83
2023-02-28T07:10:11.799Z,5.57
2023-02-28T07:15:13.509Z,4.60
2023-02-28T07:20:15.192Z,5.60
2023-02-28T07:25:18.316Z,6.17
2023-02-28T07:30:20.377Z,6.10
2023-02-28T07:35:22.140Z,6.57
2023-02-28T07:40:25.367Z,7.90
2023-02-28T07:45:27.089Z,5.15
2023-02-28T07:50:31.626Z,6.87
2023-02-28T07:55:34.703Z,5.83
2023-02-28T08:00:36.366Z,6.47
2023-02-28T08:05:39.693Z,6.37
2023-02-28T08:10:42.815Z,6.50
2023-02-28T08:15:46.205Z,5.53
2023-02-28T08:20:47.863Z,5.30
2023-02-28T08:25:55.733Z,10.23
2023-02-28T08:30:57.399Z,4.30
2023-02-28T08:35:59.109Z,4.80
2023-02-28T08:41:03.490Z,4.50
2023-02-28T08:46:05.348Z,5.13
2023-02-28T08:51:08.837Z,4.57
2023-02-28T08:56:13.121Z,4.03
2023-02-28T09:01:16.073Z,3.65
2023-02-28T09:06:18.587Z,3.67
2023-02-28T09:11:21.796Z,3.63
2023-02-28T09:16:23.565Z,3.40
2023-02-28T09:21:25.294Z,3.20
2023-02-28T09:26:34.773Z,2.88
2023-02-28T09:31:44.635Z,2.90
2023-02-28T09:36:46.989Z,2.63
2023-02-28T09:41:52.487Z,2.17
2023-02-28T09:46:56.586Z,2.28
2023-02-28T09:52:00.029Z,1.55
2023-02-28T09:57:07.108Z,2.00
2023-02-28T10:02:17.650Z,2.10
2023-02-28T10:07:24.239Z,1.58
2023-02-28T10:12:27.218Z,1.60
2023-02-28T10:17:31.585Z,1.92
2023-02-28T10:22:35.098Z,1.77
2023-02-28T10:27:38.107Z,1.92
2023-02-28T10:32:39.861Z,1.67
2023-02-28T10:37:42.348Z,1.83
2023-02-28T10:42:46.357Z,1.65
2023-02-28T10:47:54.744Z,1.90
2023-02-28T10:53:15.618Z,1.75
2023-02-28T10:58:26.461Z,2.20
2023-02-28T11:03:32.690Z,2.20
2023-02-28T11:08:35.305Z,2.57
2023-02-28T11:13:41.046Z,1.90
2023-02-28T11:18:44.685Z,2.47
2023-02-28T11:23:46.368Z,2.00
2023-02-28T11:28:49.477Z,1.93
2023-02-28T11:33:51.966Z,1.97
2023-02-28T11:38:54.377Z,2.13
2023-02-28T11:44:21.718Z,3.20
2023-02-28T11:49:32.390Z,2.60
2023-02-28T11:54:44.056Z,3.30
2023-02-28T11:59:55.516Z,3.23
2023-02-28T12:05:09.738Z,5.13
2023-02-28T12:10:17.049Z,3.00
2023-02-28T12:15:27.168Z,3.10
2023-02-28T12:20:33.417Z,2.40
2023-02-28T12:25:51.363Z,2.40
2023-02-28T12:30:56.576Z,2.97
2023-02-28T12:35:59.610Z,2.77
2023-02-28T12:41:05.254Z,2.70
2023-02-28T12:46:10.368Z,3.13
2023-02-28T12:51:12.153Z,3.03
2023-02-28T12:56:16.450Z,3.10
2023-02-28T13:01:40.005Z,3.50
2023-02-28T13:06:47.851Z,3.53
2023-02-28T13:11:49.857Z,3.37
2023-02-28T13:16:57.176Z,3.17
2023-02-28T13:21:59.604Z,2.87
2023-02-28T13:27:25.506Z,3.50
2023-02-28T13:32:38.375Z,3.10
2023-02-28T13:37:43.482Z,3.10
2023-02-28T13:42:48.229Z,2.65
2023-02-28T13:47:54.771Z,3.27
2023-02-28T13:53:15.536Z,2.87
2023-02-28T13:58:26.647Z,2.43
2023-02-28T14:03:37.777Z,2.57
2023-02-28T14:08:39.499Z,2.20
2023-02-28T14:13:49.325Z,2.43
2023-02-28T14:19:01.902Z,2.70
2023-02-28T14:24:29.577Z,2.80
2023-02-28T14:29:42.927Z,2.27
2023-02-28T14:34:49.411Z,2.90
2023-02-28T14:39:51.102Z,3.45
2023-02-28T14:44:56.171Z,2.43
2023-02-28T14:49:59.450Z,2.93
2023-02-28T14:55:02.250Z,2.80
2023-02-28T15:00:11.364Z,2.37
2023-02-28T15:05:30.814Z,4.10
2023-02-28T15:10:32.845Z,3.13
2023-02-28T15:15:51.734Z,2.83
2023-02-28T15:21:06.573Z,3.37
2023-02-28T15:26:08.312Z,2.90
2023-02-28T15:31:20.425Z,3.10
2023-02-28T15:36:26.106Z,3.23
2023-02-28T15:41:29.184Z,4.10
2023-02-28T15:46:31.030Z,3.57
2023-02-28T15:51:34.961Z,3.20
2023-02-28T15:56:39.121Z,2.50
2023-02-28T16:01:41.190Z,2.60
2023-02-28T16:06:45.214Z,3.07
2023-02-28T16:11:47.997Z,3.27
2023-02-28T16:16:51.165Z,3.03
2023-02-28T16:21:54.317Z,3.87
2023-02-28T16:26:56.278Z,3.33
2023-02-28T16:31:58.028Z,2.90
2023-02-28T16:37:01.094Z,3.08
2023-02-28T16:42:02.905Z,2.60
2023-02-28T16:47:04.923Z,3.20
2023-02-28T16:52:08.001Z,3.20
2023-02-28T16:57:16.424Z,3.50
2023-02-28T17:02:20.269Z,3.10
2023-02-28T17:07:23.394Z,3.23
2023-02-28T17:12:25.104Z,3.27
2023-02-28T17:17:26.985Z,3.28
2023-02-28T17:22:30.050Z,3.60
2023-02-28T17:27:31.765Z,4.00
2023-02-28T17:32:33.499Z,3.80
2023-02-28T17:37:36.587Z,3.70
2023-02-28T17:42:38.385Z,3.70
2023-02-28T17:47:40.218Z,4.70
2023-02-28T17:52:43.265Z,3.23
2023-02-28T17:57:44.969Z,3.90
2023-02-28T18:02:46.682Z,3.90
2023-02-28T18:07:49.828Z,4.10
2023-02-28T18:12:52.309Z,7.73
2023-02-28T18:17:54.034Z,4.70
2023-02-28T18:22:57.090Z,6.83
2023-02-28T18:27:59.001Z,7.10
2023-02-28T18:33:01.435Z,4.70
2023-02-28T18:38:08.902Z,3.90
2023-02-28T18:43:10.661Z,4.10
2023-02-28T18:48:13.297Z,4.00
2023-02-28T18:53:16.429Z,4.60
2023-02-28T18:58:18.178Z,3.90
2023-02-28T19:03:20.248Z,4.20
2023-02-28T19:08:23.391Z,3.70
2023-02-28T19:13:25.136Z,4.10
2023-02-28T19:18:26.818Z,3.77
2023-02-28T19:23:31.571Z,4.50
2023-02-28T19:28:33.271Z,4.10
2023-02-28T19:33:34.974Z,5.50
2023-02-28T19:38:38.024Z,5.00
2023-02-28T19:43:39.896Z,5.30
2023-02-28T19:48:42.800Z,5.77
2023-02-28T19:53:45.977Z,5.40
2023-02-28T19:58:47.714Z,5.65
2023-02-28T20:03:49.646Z,5.00
2023-02-28T20:08:53.834Z,5.70
2023-02-28T20:13:56.939Z,11.53
2023-02-28T20:18:58.721Z,32.77
2023-02-28T20:24:01.744Z,11.53
2023-02-28T20:29:03.548Z,8.80
2023-02-28T20:34:05.272Z,8.40
2023-02-28T20:39:08.290Z,8.17
2023-02-28T20:44:11.937Z,7.73
2023-02-28T20:49:15.676Z,8.00
2023-02-28T20:54:18.771Z,8.60
2023-02-28T20:59:22.216Z,6.70
2023-02-28T21:04:23.914Z,11.23
2023-02-28T21:09:28.797Z,10.77
2023-02-28T21:14:32.101Z,11.30
2023-02-28T21:19:33.832Z,9.43
2023-02-28T21:24:36.934Z,8.23
2023-02-28T21:29:38.604Z,8.03
2023-02-28T21:34:41.454Z,9.70
2023-02-28T21:39:45.130Z,10.10
2023-02-28T21:44:47.173Z,10.03
2023-02-28T21:49:48.892Z,12.10
2023-02-28T21:54:51.986Z,10.20
2023-02-28T21:59:53.685Z,9.40
2023-02-28T22:04:55.378Z,11.13
2023-02-28T22:09:58.540Z,10.33
2023-02-28T22:15:00.331Z,8.70
2023-02-28T22:20:02.048Z,8.27
2023-02-28T22:25:06.609Z,9.63
2023-02-28T22:30:09.730Z,13.47
2023-02-28T22:35:11.425Z,10.90
2023-02-28T22:40:14.826Z,11.00
2023-02-28T22:45:16.750Z,12.67
2023-02-28T22:50:18.667Z,13.40
2023-02-28T22:55:21.783Z,11.73
2023-02-28T23:00:23.952Z,11.25
2023-02-28T23:05:25.768Z,12.20
2023-02-28T23:10:28.879Z,11.70
2023-02-28T23:15:30.573Z,12.57
2023-02-28T23:20:32.271Z,11.67
2023-02-28T23:25:35.358Z,10.20
2023-02-28T23:30:38.502Z,10.40
2023-02-28T23:35:40.222Z,10.60
2023-02-28T23:40:43.293Z,10.27
2023-02-28T23:45:46.642Z,10.10
2023-02-28T23:50:48.404Z,9.80
2023-02-28T23:55:51.449Z,10.27
